createdAt,value
2018-11-10T00:00:35.928Z,14.20
2018-11-10T00:03:05.201Z,14.20
2018-11-10T00:05:33.633Z,14.20
2018-11-10T00:08:01.985Z,14.20
2018-11-10T00:10:30.292Z,14.20
2018-11-10T00:12:58.593Z,14.20
2018-11-10T00:15:26.898Z,14.20
2018-11-10T00:17:55.201Z,14.20
2018-11-10T00:20:23.512Z,14.20
2018-11-10T00:22:51.835Z,14.20
2018-11-10T00:25:20.164Z,14.20
2018-11-10T00:27:48.478Z,14.20
2018-11-10T00:30:17.968Z,14.20
2018-11-10T00:32:46.709Z,14.20
2018-11-10T00:35:15.029Z,14.20
2018-11-10T00:37:43.757Z,14.20
2018-11-10T00:40:14.397Z,14.20
2018-11-10T00:42:43.036Z,14.20
2018-11-10T00:45:11.356Z,14.20
2018-11-10T00:47:39.951Z,14.20
2018-11-10T00:50:08.721Z,14.20
2018-11-10T00:52:37.138Z,14.20
2018-11-10T00:55:05.530Z,14.20
2018-11-10T00:57:33.851Z,14.20
2018-11-10T01:00:02.193Z,14.20
2018-11-10T01:02:30.496Z,14.20
2018-11-10T01:04:58.812Z,14.30
2018-11-10T01:07:27.152Z,14.20
2018-11-10T01:09:55.450Z,14.20
2018-11-10T01:12:23.797Z,14.20
2018-11-10T01:14:52.116Z,14.20
2018-11-10T01:17:20.444Z,14.20
2018-11-10T01:19:48.755Z,14.20
2018-11-10T01:22:17.063Z,14.20
2018-11-10T01:24:45.434Z,14.20
2018-11-10T01:27:13.776Z,14.20
2018-11-10T01:29:42.098Z,14.20
2018-11-10T01:32:10.396Z,14.20
2018-11-10T01:34:38.720Z,14.20
2018-11-10T01:37:07.029Z,14.20
2018-11-10T01:39:35.350Z,14.20
2018-11-10T01:42:03.664Z,14.20
2018-11-10T01:44:32.676Z,14.20
2018-11-10T01:47:00.999Z,14.20
2018-11-10T01:49:29.359Z,14.20
2018-11-10T01:51:57.669Z,14.20
2018-11-10T01:54:25.991Z,14.20
2018-11-10T01:56:54.310Z,14.20
2018-11-10T01:59:22.624Z,14.20
2018-11-10T02:01:50.937Z,14.20
2018-11-10T02:04:19.260Z,14.20
2018-11-10T02:06:47.591Z,14.20
2018-11-10T02:09:15.878Z,14.20
2018-11-10T02:11:44.194Z,14.20
2018-11-10T02:14:12.516Z,14.20
2018-11-10T02:16:40.864Z,14.20
2018-11-10T02:19:09.165Z,14.20
2018-11-10T02:21:37.460Z,14.20
2018-11-10T02:24:05.818Z,14.20
2018-11-10T02:26:34.116Z,14.20
2018-11-10T02:29:02.418Z,14.20
2018-11-10T02:31:30.730Z,14.20
2018-11-10T02:33:59.072Z,14.20
2018-11-10T02:36:27.386Z,14.20
2018-11-10T02:38:55.713Z,14.20
2018-11-10T02:41:24.020Z,14.30
2018-11-10T02:43:52.328Z,14.20
2018-11-10T02:46:20.641Z,14.20
2018-11-10T02:48:48.956Z,14.20
2018-11-10T02:51:17.292Z,14.20
2018-11-10T02:53:45.661Z,14.20
2018-11-10T02:56:14.014Z,14.20
2018-11-10T02:58:42.348Z,14.20
2018-11-10T03:01:10.669Z,14.20
2018-11-10T03:03:39.018Z,14.20
2018-11-10T03:06:07.368Z,14.20
2018-11-10T03:08:35.721Z,14.20
2018-11-10T03:11:04.080Z,14.20
2018-11-10T03:13:32.416Z,14.20
2018-11-10T03:16:00.784Z,14.20
2018-11-10T03:18:29.123Z,14.20
2018-11-10T03:20:57.489Z,14.20
2018-11-10T03:23:25.868Z,14.20
2018-11-10T03:25:54.204Z,14.20
2018-11-10T03:28:22.532Z,14.20
2018-11-10T03:30:50.897Z,14.20
2018-11-10T03:33:19.237Z,14.20
2018-11-10T03:35:47.588Z,14.20
2018-11-10T03:38:15.926Z,14.20
2018-11-10T03:40:44.268Z,14.20
2018-11-10T03:43:12.810Z,14.20
2018-11-10T03:45:41.450Z,14.20
2018-11-10T03:48:09.991Z,14.20
2018-11-10T03:50:38.543Z,14.20
2018-11-10T03:53:07.260Z,14.20
2018-11-10T03:55:35.907Z,14.20
2018-11-10T03:58:04.570Z,14.20
2018-11-10T04:00:33.927Z,14.20
2018-11-10T04:03:02.629Z,14.20
2018-11-10T04:05:31.150Z,14.20
2018-11-10T04:07:59.777Z,14.20
2018-11-10T04:10:28.405Z,14.20
2018-11-10T04:12:56.956Z,14.20
2018-11-10T04:15:25.502Z,14.20
2018-11-10T04:17:54.051Z,14.20
2018-11-10T04:20:22.601Z,14.20
2018-11-10T04:22:51.214Z,14.20
2018-11-10T04:25:19.883Z,14.20
2018-11-10T04:27:48.452Z,14.20
2018-11-10T04:30:17.099Z,14.20
2018-11-10T04:32:45.699Z,14.20
2018-11-10T04:35:14.242Z,14.20
2018-11-10T04:37:42.847Z,14.20
2018-11-10T04:40:11.443Z,14.20
2018-11-10T04:42:40.531Z,14.20
2018-11-10T04:45:10.344Z,14.20
2018-11-10T04:47:39.120Z,14.20
2018-11-10T04:50:09.168Z,14.20
2018-11-10T04:52:37.755Z,14.20
2018-11-10T04:55:06.820Z,14.20
2018-11-10T04:57:35.597Z,14.20
2018-11-10T05:00:04.802Z,14.20
2018-11-10T05:02:33.423Z,14.20
2018-11-10T05:05:01.955Z,14.20
2018-11-10T05:07:30.512Z,14.20
2018-11-10T05:09:59.276Z,14.20
2018-11-10T05:12:27.997Z,14.20
2018-11-10T05:14:56.598Z,14.20
2018-11-10T05:17:25.242Z,14.20
2018-11-10T05:19:53.802Z,14.20
2018-11-10T05:22:22.353Z,14.20
2018-11-10T05:24:50.982Z,14.20
2018-11-10T05:27:19.623Z,14.20
2018-11-10T05:29:48.314Z,14.20
2018-11-10T05:32:17.226Z,14.20
2018-11-10T05:34:45.827Z,14.20
2018-11-10T05:37:15.088Z,14.20
2018-11-10T05:39:43.636Z,14.20
2018-11-10T05:42:12.483Z,14.20
2018-11-10T05:44:41.390Z,14.20
2018-11-10T05:47:09.917Z,14.20
2018-11-10T05:49:38.477Z,14.20
2018-11-10T05:52:07.915Z,14.20
2018-11-10T05:54:36.610Z,14.20
2018-11-10T05:57:05.737Z,14.20
2018-11-10T05:59:34.563Z,14.20
2018-11-10T06:02:03.298Z,14.20
2018-11-10T06:04:32.348Z,14.20
2018-11-10T06:07:02.292Z,14.20
2018-11-10T06:09:31.895Z,14.20
2018-11-10T06:12:01.840Z,14.20
2018-11-10T06:14:32.874Z,14.20
2018-11-10T06:17:02.658Z,14.20
2018-11-10T06:19:31.944Z,14.20
2018-11-10T06:22:01.948Z,14.20
2018-11-10T06:24:30.644Z,14.20
2018-11-10T06:26:59.400Z,14.20
2018-11-10T06:29:28.054Z,14.20
2018-11-10T06:31:56.967Z,14.20
2018-11-10T06:34:25.505Z,14.20
2018-11-10T06:36:54.110Z,14.20
2018-11-10T06:39:22.689Z,14.20
2018-11-10T06:41:51.294Z,14.20
2018-11-10T06:44:20.091Z,14.20
2018-11-10T06:46:48.779Z,14.20
2018-11-10T06:49:17.353Z,14.20
2018-11-10T06:51:45.938Z,14.20
2018-11-10T06:54:14.832Z,14.20
2018-11-10T06:56:46.860Z,14.20
2018-11-10T06:59:15.630Z,14.20
2018-11-10T07:01:44.357Z,14.20
2018-11-10T07:04:13.348Z,14.20
2018-11-10T07:06:41.905Z,14.20
2018-11-10T07:09:11.421Z,14.20
2018-11-10T07:11:40.900Z,14.20
2018-11-10T07:14:09.962Z,14.30
2018-11-10T07:16:40.198Z,14.80
2018-11-10T07:19:08.749Z,15.20
2018-11-10T07:21:37.322Z,15.40
2018-11-10T07:24:06.410Z,15.70
2018-11-10T07:26:35.023Z,16.10
2018-11-10T07:29:03.607Z,16.30
2018-11-10T07:31:32.168Z,16.50
2018-11-10T07:34:00.739Z,16.70
2018-11-10T07:36:29.293Z,16.90
2018-11-10T07:38:58.074Z,17.10
2018-11-10T07:41:26.620Z,17.20
2018-11-10T07:43:57.335Z,17.30
2018-11-10T07:46:25.946Z,17.40
2018-11-10T07:48:55.206Z,17.50
2018-11-10T07:51:24.479Z,17.60
2018-11-10T07:53:53.158Z,17.70
2018-11-10T07:56:21.939Z,17.80
2018-11-10T07:58:51.416Z,17.80
2018-11-10T08:01:20.279Z,17.90
2018-11-10T08:03:48.967Z,17.90
2018-11-10T08:06:17.606Z,18.00
2018-11-10T08:08:47.652Z,18.10
2018-11-10T08:11:16.644Z,18.20
2018-11-10T08:13:45.659Z,18.20
2018-11-10T08:16:14.430Z,18.30
2018-11-10T08:18:43.271Z,18.30
2018-11-10T08:21:11.725Z,18.30
2018-11-10T08:23:40.806Z,18.30
2018-11-10T08:26:09.366Z,18.40
2018-11-10T08:28:37.915Z,18.40
2018-11-10T08:31:06.612Z,18.50
2018-11-10T08:33:35.280Z,18.50
2018-11-10T08:36:05.994Z,18.60
2018-11-10T08:38:34.698Z,18.60
2018-11-10T08:41:03.352Z,18.70
2018-11-10T08:43:31.941Z,18.70
2018-11-10T08:46:00.900Z,18.70
2018-11-10T08:48:30.729Z,18.70
2018-11-10T08:51:01.167Z,18.80
2018-11-10T08:53:30.971Z,18.80
2018-11-10T08:56:00.912Z,18.80
2018-11-10T08:58:29.742Z,18.90
2018-11-10T09:00:59.434Z,18.90
2018-11-10T09:03:30.591Z,19.00
2018-11-10T09:06:00.344Z,18.90
2018-11-10T09:08:32.308Z,18.90
2018-11-10T09:11:03.714Z,19.00
2018-11-10T09:13:32.420Z,19.10
2018-11-10T09:16:02.863Z,19.00
2018-11-10T09:18:32.970Z,19.10
2018-11-10T09:21:01.738Z,19.10
2018-11-10T09:23:31.449Z,19.20
2018-11-10T09:26:02.871Z,19.10
2018-11-10T09:28:32.055Z,19.20
2018-11-10T09:31:00.945Z,19.20
2018-11-10T09:33:29.458Z,19.20
2018-11-10T09:35:58.372Z,19.30
2018-11-10T09:38:27.102Z,19.30
2018-11-10T09:40:56.052Z,19.30
2018-11-10T09:43:24.894Z,19.40
2018-11-10T09:45:54.298Z,19.40
2018-11-10T09:48:23.618Z,19.40
2018-11-10T09:50:52.291Z,19.40
2018-11-10T09:53:21.365Z,19.50
2018-11-10T09:55:50.088Z,19.50
2018-11-10T09:58:18.750Z,19.50
2018-11-10T10:00:47.556Z,19.60
2018-11-10T10:03:16.169Z,19.60
2018-11-10T10:05:45.221Z,19.60
2018-11-10T10:08:15.686Z,19.60
2018-11-10T10:10:44.374Z,19.70
2018-11-10T10:13:12.969Z,19.70
2018-11-10T10:15:41.609Z,19.70
2018-11-10T10:19:40.146Z,19.70
2018-11-10T10:22:09.970Z,19.70
2018-11-10T10:24:39.643Z,19.80
2018-11-10T10:27:08.379Z,19.80
2018-11-10T10:29:37.121Z,19.90
2018-11-10T10:32:06.047Z,19.90
2018-11-10T10:34:34.782Z,20.00
2018-11-10T10:37:03.497Z,20.00
2018-11-10T10:39:32.355Z,20.00
2018-11-10T10:42:00.967Z,20.10
2018-11-10T10:44:29.781Z,20.00
2018-11-10T10:46:58.646Z,19.70
2018-11-10T10:49:27.323Z,19.40
2018-11-10T10:51:56.418Z,19.10
2018-11-10T10:54:25.003Z,18.90
2018-11-10T10:56:53.631Z,18.70
2018-11-10T10:59:22.563Z,18.50
2018-11-10T11:01:56.622Z,18.30
2018-11-10T11:04:30.638Z,18.10
2018-11-10T11:06:59.610Z,18.00
2018-11-10T11:09:28.543Z,17.90
2018-11-10T11:11:57.365Z,17.80
2018-11-10T11:16:06.442Z,17.60
2018-11-10T11:18:35.067Z,17.50
2018-11-10T11:21:04.004Z,17.40
2018-11-10T11:23:32.632Z,17.30
2018-11-10T11:26:01.387Z,17.20
2018-11-10T11:28:29.969Z,17.10
2018-11-10T11:30:59.064Z,17.10
2018-11-10T11:33:28.511Z,17.00
2018-11-10T11:35:57.309Z,16.90
2018-11-10T11:38:26.265Z,16.80
2018-11-10T11:40:55.028Z,16.80
2018-11-10T11:43:23.774Z,16.70
2018-11-10T11:45:52.525Z,16.70
2018-11-10T11:48:21.197Z,16.70
2018-11-10T11:50:49.986Z,16.60
2018-11-10T11:53:18.659Z,16.60
2018-11-10T11:55:47.384Z,16.60
2018-11-10T11:58:16.052Z,16.60
2018-11-10T12:00:44.608Z,16.50
2018-11-10T12:03:13.238Z,16.50
2018-11-10T12:05:41.935Z,16.50
2018-11-10T12:08:10.501Z,16.50
2018-11-10T12:10:39.134Z,16.40
2018-11-10T12:13:07.961Z,16.40
2018-11-10T12:15:36.539Z,16.40
2018-11-10T12:18:05.166Z,16.40
2018-11-10T12:20:33.807Z,16.40
2018-11-10T12:23:03.136Z,16.30
2018-11-10T12:25:31.738Z,16.30
2018-11-10T12:28:00.525Z,16.30
2018-11-10T12:30:29.116Z,16.30
2018-11-10T12:32:57.718Z,16.30
2018-11-10T12:35:26.349Z,16.30
2018-11-10T12:37:55.117Z,16.20
2018-11-10T12:40:23.862Z,16.20
2018-11-10T12:42:52.654Z,16.20
2018-11-10T12:45:21.239Z,16.20
2018-11-10T12:47:49.818Z,16.20
2018-11-10T12:50:18.759Z,16.20
2018-11-10T12:52:47.315Z,16.20
2018-11-10T12:55:16.376Z,16.20
2018-11-10T12:57:45.821Z,16.20
2018-11-10T13:00:16.362Z,16.20
2018-11-10T13:02:45.672Z,16.20
2018-11-10T13:05:14.531Z,16.10
2018-11-10T13:07:45.450Z,16.10
2018-11-10T13:10:14.228Z,16.10
2018-11-10T13:12:43.562Z,16.10
2018-11-10T13:15:12.503Z,16.10
2018-11-10T13:17:41.160Z,16.10
2018-11-10T13:20:12.184Z,16.10
2018-11-10T13:22:41.332Z,16.10
2018-11-10T13:32:11.562Z,16.10
2018-11-10T13:34:40.226Z,16.00
2018-11-10T13:37:08.864Z,16.00
2018-11-10T13:39:37.483Z,16.00
2018-11-10T13:42:06.694Z,16.00
2018-11-10T13:44:35.554Z,16.00
2018-11-10T13:47:04.172Z,16.00
2018-11-10T13:49:32.786Z,16.00
2018-11-10T13:52:02.020Z,16.00
2018-11-10T13:54:30.572Z,16.00
2018-11-10T13:56:59.132Z,15.90
2018-11-10T13:59:27.959Z,15.90
2018-11-10T14:01:56.712Z,16.00
2018-11-10T14:04:25.628Z,15.90
2018-11-10T14:06:54.883Z,15.90
2018-11-10T14:09:23.576Z,15.90
2018-11-10T14:11:52.458Z,15.90
2018-11-10T14:14:21.329Z,15.90
2018-11-10T14:16:51.247Z,16.10
2018-11-10T14:19:19.959Z,17.10
2018-11-10T14:21:48.909Z,17.70
2018-11-10T14:24:17.700Z,18.20
2018-11-10T14:26:46.426Z,18.50
2018-11-10T14:29:15.253Z,18.80
2018-11-10T14:31:43.854Z,19.00
2018-11-10T14:34:12.427Z,19.20
2018-11-10T14:36:41.067Z,19.40
2018-11-10T14:39:10.895Z,19.50
2018-11-10T14:41:39.594Z,19.60
2018-11-10T14:44:08.934Z,19.70
2018-11-10T14:46:38.157Z,19.90
2018-11-10T14:49:07.585Z,20.00
2018-11-10T14:51:36.128Z,20.50
2018-11-10T14:54:04.985Z,20.80
2018-11-10T14:56:34.146Z,21.00
2018-11-10T14:59:03.139Z,21.10
2018-11-10T15:01:32.270Z,21.10
2018-11-10T15:04:01.242Z,21.20
2018-11-10T15:06:29.905Z,21.10
2018-11-10T15:08:58.627Z,21.10
2018-11-10T15:11:27.154Z,21.20
2018-11-10T15:13:55.731Z,21.40
2018-11-10T15:16:24.348Z,21.20
2018-11-10T15:18:52.858Z,20.70
2018-11-10T15:21:21.445Z,20.30
2018-11-10T15:23:50.007Z,20.00
2018-11-10T15:26:18.856Z,19.90
2018-11-10T15:28:47.805Z,19.80
2018-11-10T15:31:17.732Z,19.50
2018-11-10T15:33:46.416Z,19.30
2018-11-10T15:36:15.106Z,19.20
2018-11-10T15:38:43.808Z,19.30
2018-11-10T15:41:12.650Z,19.30
2018-11-10T15:43:41.244Z,19.10
2018-11-10T15:46:10.009Z,18.90
2018-11-10T15:48:38.936Z,18.80
2018-11-10T15:51:07.470Z,18.90
2018-11-10T15:53:36.122Z,19.00
2018-11-10T15:56:05.027Z,19.10
2018-11-10T15:58:33.565Z,18.90
2018-11-10T16:01:02.136Z,18.80
2018-11-10T16:03:30.671Z,18.70
2018-11-10T16:05:59.288Z,18.70
2018-11-10T16:08:27.996Z,18.80
2018-11-10T16:10:56.588Z,18.90
2018-11-10T16:13:25.186Z,18.90
2018-11-10T16:15:53.838Z,18.70
2018-11-10T16:18:22.670Z,18.60
2018-11-10T16:20:51.451Z,18.60
2018-11-10T16:23:20.269Z,18.50
2018-11-10T16:25:48.926Z,18.40
2018-11-10T16:28:18.647Z,18.50
2018-11-10T16:30:47.288Z,18.60
2018-11-10T16:33:15.955Z,18.70
2018-11-10T16:35:44.611Z,18.80
2018-11-10T16:38:13.352Z,18.70
2018-11-10T16:40:41.968Z,18.60
2018-11-10T16:43:10.871Z,18.50
2018-11-10T16:45:41.378Z,18.70
2018-11-10T16:48:11.394Z,18.80
2018-11-10T16:50:40.921Z,18.80
2018-11-10T16:53:09.568Z,18.70
2018-11-10T16:55:38.151Z,18.50
2018-11-10T17:03:33.372Z,18.50
2018-11-10T17:06:02.176Z,18.30
2018-11-10T17:08:31.047Z,18.10
2018-11-10T17:10:59.820Z,18.00
2018-11-10T17:13:28.547Z,17.80
2018-11-10T17:15:57.178Z,17.70
2018-11-10T17:18:25.971Z,17.60
2018-11-10T17:20:55.106Z,17.50
2018-11-10T17:23:23.846Z,17.40
2018-11-10T17:25:52.575Z,17.30
2018-11-10T17:28:21.546Z,17.20
2018-11-10T17:30:50.471Z,17.20
2018-11-10T17:33:19.281Z,17.10
2018-11-10T17:35:48.095Z,17.00
2018-11-10T17:38:17.012Z,17.00
2018-11-10T17:40:47.008Z,16.90
2018-11-10T17:43:16.022Z,16.90
2018-11-10T17:45:44.590Z,16.80
2018-11-10T17:48:13.168Z,16.80
2018-11-10T17:50:41.803Z,16.80
2018-11-10T17:53:10.675Z,16.80
2018-11-10T17:55:39.430Z,16.80
2018-11-10T17:58:08.053Z,16.70
2018-11-10T18:00:36.673Z,16.70
2018-11-10T18:03:05.596Z,16.60
2018-11-10T18:05:34.152Z,16.60
2018-11-10T18:08:04.337Z,16.60
2018-11-10T18:10:33.110Z,16.60
2018-11-10T18:13:03.318Z,16.60
2018-11-10T18:15:32.239Z,16.60
2018-11-10T18:18:00.846Z,16.50
2018-11-10T18:20:29.472Z,16.50
2018-11-10T18:22:58.227Z,16.50
2018-11-10T18:25:27.001Z,16.50
2018-11-10T18:27:55.499Z,16.50
2018-11-10T18:30:24.151Z,16.50
2018-11-10T18:32:52.755Z,16.40
2018-11-10T18:35:21.630Z,16.40
2018-11-10T18:37:50.205Z,16.40
2018-11-10T18:40:18.968Z,16.40
2018-11-10T18:42:47.813Z,16.40
2018-11-10T18:45:16.560Z,16.40
2018-11-10T18:47:45.129Z,16.30
2018-11-10T18:50:16.109Z,16.30
2018-11-10T18:52:44.924Z,16.30
2018-11-10T18:55:14.662Z,16.30
2018-11-10T18:57:43.870Z,16.30
2018-11-10T19:00:14.641Z,16.30
2018-11-10T19:02:43.450Z,16.30
2018-11-10T19:05:13.701Z,16.30
2018-11-10T19:07:42.471Z,16.30
2018-11-10T19:10:12.891Z,16.20
2018-11-10T19:12:42.039Z,16.20
2018-11-10T19:15:14.244Z,16.20
2018-11-10T19:17:42.917Z,16.20
2018-11-10T19:20:12.169Z,16.20
2018-11-10T19:22:41.025Z,16.20
2018-11-10T19:31:34.664Z,16.20
2018-11-10T19:34:03.334Z,16.20
2018-11-10T19:36:31.891Z,16.20
2018-11-10T19:39:00.505Z,16.20
2018-11-10T19:41:29.600Z,16.10
2018-11-10T19:44:00.101Z,16.10
2018-11-10T19:46:29.085Z,16.10
2018-11-10T19:58:30.978Z,16.10
2018-11-10T20:00:59.942Z,17.20
2018-11-10T20:03:28.627Z,17.40
2018-11-10T20:05:57.301Z,17.70
2018-11-10T20:08:26.292Z,17.70
2018-11-10T20:10:55.129Z,17.60
2018-11-10T20:13:24.029Z,17.60
2018-11-10T20:15:52.621Z,17.80
2018-11-10T20:18:21.342Z,17.90
2018-11-10T20:20:50.476Z,18.10
2018-11-10T20:23:19.404Z,18.10
2018-11-10T20:25:48.378Z,18.00
2018-11-10T20:28:17.124Z,17.90
2018-11-10T20:30:46.033Z,18.10
2018-11-10T20:33:15.139Z,18.20
2018-11-10T20:35:43.719Z,18.30
2018-11-10T20:38:12.273Z,18.20
2018-11-10T20:40:40.961Z,18.10
2018-11-10T20:43:09.657Z,18.20
2018-11-10T20:52:04.637Z,18.30
2018-11-10T20:54:33.254Z,18.30
2018-11-10T20:57:02.177Z,18.40
2018-11-10T20:59:30.859Z,18.40
2018-11-10T21:01:59.558Z,18.50
2018-11-10T21:04:28.123Z,18.50
2018-11-10T21:06:57.385Z,18.40
2018-11-10T21:09:26.613Z,18.30
2018-11-10T21:11:55.347Z,18.40
2018-11-10T21:14:24.078Z,18.50
2018-11-10T21:16:52.754Z,18.60
2018-11-10T21:19:22.513Z,18.50
2018-11-10T21:21:51.210Z,18.40
2018-11-10T21:24:19.884Z,18.30
2018-11-10T21:26:48.917Z,18.40
2018-11-10T21:29:19.039Z,18.60
2018-11-10T21:31:47.692Z,18.70
2018-11-10T21:34:16.310Z,18.60
2018-11-10T21:36:44.954Z,18.40
2018-11-10T21:39:20.001Z,18.30
2018-11-10T21:41:49.380Z,18.50
2018-11-10T21:44:18.708Z,18.60
2018-11-10T21:46:47.901Z,18.70
2018-11-10T21:49:17.428Z,18.60
2018-11-10T21:51:46.277Z,18.50
2018-11-10T21:54:15.087Z,18.40
2018-11-10T21:56:44.410Z,18.60
2018-11-10T21:59:13.129Z,18.70
2018-11-10T22:01:41.839Z,18.80
2018-11-10T22:04:10.403Z,18.60
2018-11-10T22:06:39.033Z,18.50
2018-11-10T22:09:09.889Z,18.50
2018-11-10T22:11:43.832Z,18.60
2018-11-10T22:14:15.619Z,18.80
2018-11-10T22:16:44.653Z,18.60
2018-11-10T22:19:13.556Z,18.50
2018-11-10T22:21:42.220Z,18.40
2018-11-10T22:24:10.766Z,18.50
2018-11-10T22:26:39.314Z,18.70
2018-11-10T22:29:08.559Z,18.80
2018-11-10T22:31:37.321Z,18.80
2018-11-10T22:34:06.059Z,18.60
2018-11-10T22:36:34.995Z,18.50
2018-11-10T22:39:04.101Z,18.70
2018-11-10T22:41:33.169Z,18.80
2018-11-10T22:44:01.780Z,18.90
2018-11-10T22:46:31.202Z,18.80
2018-11-10T22:48:59.953Z,18.70
2018-11-10T22:51:28.736Z,18.60
2018-11-10T22:53:57.301Z,18.70
2018-11-10T22:56:25.917Z,18.80
2018-11-10T22:58:54.597Z,18.90
2018-11-10T23:01:27.655Z,18.90
2018-11-10T23:03:56.483Z,18.80
2018-11-10T23:06:25.054Z,18.60
2018-11-10T23:08:53.691Z,18.50
2018-11-10T23:11:22.386Z,18.30
2018-11-10T23:13:51.016Z,18.10
2018-11-10T23:16:19.708Z,18.00
2018-11-10T23:18:49.108Z,17.90
2018-11-10T23:21:17.754Z,17.80
2018-11-10T23:23:46.326Z,17.70
2018-11-10T23:26:14.900Z,17.60
2018-11-10T23:28:43.457Z,17.50
2018-11-10T23:31:12.032Z,17.40
2018-11-10T23:33:40.786Z,17.40
2018-11-10T23:36:09.446Z,17.30
2018-11-10T23:38:38.391Z,17.20
2018-11-10T23:41:06.943Z,17.20
2018-11-10T23:43:35.656Z,17.10
2018-11-10T23:46:04.204Z,17.10
2018-11-10T23:48:32.852Z,17.10
2018-11-10T23:51:01.505Z,17.00
2018-11-10T23:53:30.056Z,17.00
2018-11-10T23:55:58.613Z,17.00
2018-11-10T23:58:27.574Z,16.90
